createdAt,value
2023-03-03T00:02:06.161Z,22.23
2023-03-03T00:04:33.681Z,20.90
2023-03-03T00:07:01.199Z,22.90
2023-03-03T00:09:28.703Z,21.37
2023-03-03T00:12:00.532Z,22.27
2023-03-03T00:14:33.267Z,19.90
2023-03-03T00:17:12.583Z,21.03
2023-03-03T00:19:41.203Z,20.77
2023-03-03T00:22:31.432Z,20.87
2023-03-03T00:25:21.039Z,20.13
2023-03-03T00:27:48.622Z,22.20
2023-03-03T00:30:27.716Z,22.37
2023-03-03T00:32:56.027Z,22.47
2023-03-03T00:35:35.390Z,22.70
2023-03-03T00:38:18.754Z,20.60
2023-03-03T00:40:48.056Z,21.93
2023-03-03T00:43:25.227Z,20.57
2023-03-03T00:45:57.820Z,21.43
2023-03-03T00:48:43.250Z,22.43
2023-03-03T00:51:34.335Z,22.03
2023-03-03T00:54:01.963Z,23.73
2023-03-03T00:56:29.465Z,21.70
2023-03-03T00:58:57.802Z,21.63
2023-03-03T01:01:28.157Z,21.93
2023-03-03T01:03:55.981Z,22.00
2023-03-03T01:06:23.840Z,22.17
2023-03-03T01:08:51.853Z,20.97
2023-03-03T01:11:25.837Z,21.93
2023-03-03T01:16:21.339Z,20.87
2023-03-03T01:18:48.998Z,21.73
2023-03-03T01:21:16.514Z,21.17
2023-03-03T01:23:44.136Z,21.63
2023-03-03T01:26:11.711Z,23.20
2023-03-03T01:28:39.805Z,22.33
2023-03-03T01:31:07.565Z,22.70
2023-03-03T01:33:36.395Z,21.77
2023-03-03T01:36:04.667Z,22.20
2023-03-03T01:38:35.084Z,23.20
2023-03-03T01:41:03.194Z,22.10
2023-03-03T01:43:33.300Z,22.87
2023-03-03T01:46:00.707Z,23.53
2023-03-03T01:48:42.584Z,22.80
2023-03-03T01:51:25.955Z,23.57
2023-03-03T01:54:12.426Z,23.65
2023-03-03T01:56:41.440Z,22.53
2023-03-03T01:59:25.706Z,22.73
2023-03-03T02:04:22.000Z,22.03
2023-03-03T02:06:58.101Z,24.43
2023-03-03T02:10:04.635Z,23.00
2023-03-03T02:12:39.268Z,21.37
2023-03-03T02:15:37.564Z,20.83
2023-03-03T02:18:18.926Z,21.57
2023-03-03T02:20:58.930Z,22.87
2023-03-03T02:23:49.736Z,23.10
2023-03-03T02:26:23.476Z,23.27
2023-03-03T02:28:56.139Z,22.53
2023-03-03T02:31:27.697Z,21.93
2023-03-03T02:33:56.445Z,21.97
2023-03-03T02:36:34.414Z,22.57
2023-03-03T02:39:20.554Z,21.70
2023-03-03T02:42:20.322Z,23.07
2023-03-03T02:44:52.249Z,21.45
2023-03-03T02:47:19.920Z,23.93
2023-03-03T02:49:47.483Z,22.57
2023-03-03T02:52:17.980Z,22.70
2023-03-03T02:54:47.409Z,21.37
2023-03-03T02:57:15.061Z,22.40
2023-03-03T02:59:42.574Z,21.97
2023-03-03T03:02:15.067Z,20.63
2023-03-03T03:04:43.092Z,23.90
2023-03-03T03:07:13.140Z,20.83
2023-03-03T03:09:40.827Z,22.20
2023-03-03T03:12:09.151Z,23.93
2023-03-03T03:14:37.484Z,21.40
2023-03-03T03:17:06.594Z,21.80
2023-03-03T03:19:34.198Z,22.77
2023-03-03T03:22:03.500Z,22.53
2023-03-03T03:24:34.055Z,21.97
2023-03-03T03:27:05.058Z,21.67
2023-03-03T03:29:33.323Z,23.70
2023-03-03T03:32:01.301Z,23.50
2023-03-03T03:34:28.979Z,21.97
2023-03-03T03:36:57.047Z,22.23
2023-03-03T03:39:26.929Z,21.60
2023-03-03T03:41:55.047Z,23.30
2023-03-03T03:44:23.925Z,23.63
2023-03-03T03:46:51.567Z,23.93
2023-03-03T03:49:20.853Z,22.80
2023-03-03T03:51:49.583Z,21.50
2023-03-03T03:54:20.267Z,23.93
2023-03-03T03:56:48.497Z,23.20
2023-03-03T03:59:16.088Z,24.27
2023-03-03T04:01:43.645Z,24.10
2023-03-03T04:04:11.194Z,23.23
2023-03-03T04:06:39.769Z,24.47
2023-03-03T04:09:07.753Z,21.67
2023-03-03T04:11:35.858Z,23.00
2023-03-03T04:14:05.487Z,21.50
2023-03-03T04:16:33.980Z,22.87
2023-03-03T04:19:01.512Z,24.43
2023-03-03T04:21:29.790Z,24.90
2023-03-03T04:23:59.886Z,23.23
2023-03-03T04:26:30.945Z,23.97
2023-03-03T04:29:01.578Z,23.20
2023-03-03T04:31:29.679Z,24.40
2023-03-03T04:33:57.322Z,23.73
2023-03-03T04:36:25.476Z,25.33
2023-03-03T04:38:53.288Z,24.23
2023-03-03T04:41:21.369Z,23.57
2023-03-03T04:43:49.002Z,23.97
2023-03-03T04:46:16.674Z,23.37
2023-03-03T04:48:44.256Z,20.63
2023-03-03T04:51:12.163Z,26.60
2023-03-03T04:53:39.745Z,23.03
2023-03-03T04:56:09.131Z,23.03
2023-03-03T04:58:37.372Z,21.43
2023-03-03T05:01:05.367Z,24.97
2023-03-03T05:03:34.098Z,23.57
2023-03-03T05:06:01.640Z,23.47
2023-03-03T05:08:29.134Z,24.27
2023-03-03T05:10:56.849Z,23.43
2023-03-03T05:13:24.380Z,25.33
2023-03-03T05:15:55.398Z,24.20
2023-03-03T05:18:24.869Z,22.23
2023-03-03T05:20:52.827Z,24.17
2023-03-03T05:23:21.672Z,25.17
2023-03-03T05:25:50.414Z,24.70
2023-03-03T05:28:18.567Z,24.73
2023-03-03T05:30:46.772Z,23.80
2023-03-03T05:33:16.761Z,23.37
2023-03-03T05:35:44.786Z,24.30
2023-03-03T05:38:12.631Z,24.60
2023-03-03T05:40:40.256Z,25.23
2023-03-03T05:43:07.797Z,25.07
2023-03-03T05:45:35.667Z,26.60
2023-03-03T05:48:04.834Z,25.50
2023-03-03T05:50:32.755Z,24.97
2023-03-03T05:53:01.372Z,24.27
2023-03-03T05:55:28.920Z,24.70
2023-03-03T05:57:56.546Z,26.23
2023-03-03T06:00:24.224Z,24.23
2023-03-03T06:02:51.861Z,24.60
2023-03-03T06:05:19.357Z,24.67
2023-03-03T06:07:46.918Z,24.20
2023-03-03T06:10:14.509Z,21.97
2023-03-03T06:12:45.086Z,23.77
2023-03-03T06:15:12.619Z,24.33
2023-03-03T06:17:40.233Z,22.87
2023-03-03T06:20:08.732Z,23.43
2023-03-03T06:22:36.224Z,23.80
2023-03-03T06:25:04.057Z,22.47
2023-03-03T06:27:31.548Z,23.37
2023-03-03T06:29:59.117Z,22.77
2023-03-03T06:32:26.673Z,25.43
2023-03-03T06:34:54.205Z,23.43
2023-03-03T06:37:21.694Z,26.33
2023-03-03T06:39:49.206Z,24.63
2023-03-03T06:42:16.733Z,22.43
2023-03-03T06:44:44.608Z,22.27
2023-03-03T06:47:12.209Z,22.13
2023-03-03T06:49:39.874Z,24.00
2023-03-03T06:52:22.330Z,23.07
2023-03-03T06:54:50.920Z,22.93
2023-03-03T06:57:31.400Z,23.20
2023-03-03T07:00:20.366Z,22.70
2023-03-03T07:03:00.144Z,23.40
2023-03-03T07:05:28.977Z,21.40
2023-03-03T07:07:57.243Z,21.70
2023-03-03T07:10:29.068Z,22.87
2023-03-03T07:13:16.367Z,18.37
2023-03-03T07:15:44.717Z,19.57
2023-03-03T07:18:25.947Z,19.43
2023-03-03T07:20:53.465Z,19.03
2023-03-03T07:23:26.693Z,19.57
2023-03-03T07:25:54.362Z,18.40
2023-03-03T07:28:28.613Z,17.20
2023-03-03T07:30:58.195Z,18.57
2023-03-03T07:33:29.842Z,19.83
2023-03-03T07:35:59.478Z,19.57
2023-03-03T07:38:43.829Z,19.40
2023-03-03T07:43:54.898Z,17.77
2023-03-03T07:46:42.880Z,19.10
2023-03-03T07:49:21.471Z,18.90
2023-03-03T07:51:59.867Z,19.93
2023-03-03T07:54:40.287Z,18.70
2023-03-03T07:57:36.835Z,19.77
2023-03-03T08:00:16.781Z,19.47
2023-03-03T08:03:15.190Z,20.57
2023-03-03T08:05:46.741Z,20.67
2023-03-03T08:08:36.743Z,19.70
2023-03-03T08:11:05.820Z,17.27
2023-03-03T08:13:33.230Z,18.83
2023-03-03T08:16:09.953Z,17.07
2023-03-03T08:18:47.703Z,16.67
2023-03-03T08:21:20.964Z,16.70
2023-03-03T08:23:53.482Z,16.55
2023-03-03T08:26:22.890Z,19.00
2023-03-03T08:28:51.580Z,19.10
2023-03-03T08:31:31.070Z,19.33
2023-03-03T08:34:06.231Z,19.40
2023-03-03T08:36:34.788Z,17.77
2023-03-03T08:39:05.182Z,20.07
2023-03-03T08:41:32.766Z,20.23
2023-03-03T08:44:00.276Z,17.57
2023-03-03T08:46:28.634Z,19.47
2023-03-03T08:48:56.225Z,17.27
2023-03-03T08:51:25.185Z,18.33
2023-03-03T08:53:52.757Z,17.77
2023-03-03T08:56:20.302Z,18.23
2023-03-03T08:59:01.548Z,17.87
2023-03-03T09:01:32.778Z,18.73
2023-03-03T09:04:00.837Z,18.10
2023-03-03T09:06:28.453Z,17.27
2023-03-03T09:08:56.388Z,16.13
2023-03-03T09:11:29.552Z,17.03
2023-03-03T09:14:11.353Z,17.08
2023-03-03T09:16:53.243Z,17.43
2023-03-03T09:19:34.840Z,19.10
2023-03-03T09:22:23.907Z,19.23
2023-03-03T09:24:57.034Z,18.07
2023-03-03T09:27:37.809Z,19.48
2023-03-03T09:30:44.794Z,18.20
2023-03-03T09:33:43.426Z,21.60
2023-03-03T09:36:38.517Z,19.07
2023-03-03T09:39:36.706Z,18.53
2023-03-03T09:42:20.546Z,18.07
2023-03-03T09:45:21.781Z,17.00
2023-03-03T09:48:20.089Z,17.93
2023-03-03T09:51:29.441Z,17.73
2023-03-03T09:54:20.540Z,18.20
2023-03-03T09:57:16.521Z,17.67
2023-03-03T10:00:24.517Z,18.57
2023-03-03T10:03:46.309Z,19.27
2023-03-03T10:06:33.207Z,18.37
2023-03-03T10:09:37.033Z,19.10
2023-03-03T10:12:10.544Z,19.00
2023-03-03T10:15:19.875Z,17.27
2023-03-03T10:17:53.841Z,16.53
2023-03-03T10:23:59.063Z,15.10
2023-03-03T10:27:12.988Z,15.87
2023-03-03T10:30:06.510Z,17.83
2023-03-03T10:32:56.008Z,15.77
2023-03-03T10:36:05.849Z,15.73
2023-03-03T10:39:03.345Z,15.40
2023-03-03T10:42:15.821Z,15.77
2023-03-03T10:45:31.885Z,16.20
2023-03-03T10:48:28.680Z,14.57
2023-03-03T10:51:07.000Z,16.07
2023-03-03T10:53:59.371Z,18.60
2023-03-03T10:56:55.353Z,16.90
2023-03-03T10:59:54.902Z,14.13
2023-03-03T11:03:00.707Z,14.63
2023-03-03T11:05:51.374Z,14.47
2023-03-03T11:09:14.060Z,15.37
2023-03-03T11:12:32.724Z,14.97
2023-03-03T11:15:24.041Z,14.30
2023-03-03T11:18:25.597Z,14.90
2023-03-03T11:21:41.516Z,15.63
2023-03-03T11:25:01.293Z,13.30
2023-03-03T11:27:56.388Z,14.60
2023-03-03T11:30:43.660Z,14.03
2023-03-03T11:33:34.038Z,15.07
2023-03-03T11:36:35.229Z,13.03
2023-03-03T11:39:07.593Z,14.70
2023-03-03T11:42:18.153Z,15.43
2023-03-03T11:44:52.788Z,14.87
2023-03-03T11:47:48.658Z,13.83
2023-03-03T11:50:48.961Z,15.17
2023-03-03T11:53:49.352Z,15.40
2023-03-03T11:56:42.618Z,15.43
2023-03-03T11:59:30.081Z,14.57
2023-03-03T12:02:15.977Z,13.80
2023-03-03T12:04:59.205Z,16.13
2023-03-03T12:07:57.750Z,14.83
2023-03-03T12:11:13.104Z,15.60
2023-03-03T12:13:58.098Z,15.47
2023-03-03T12:17:17.336Z,15.43
2023-03-03T12:20:09.636Z,15.57
2023-03-03T12:22:57.784Z,13.50
2023-03-03T12:25:42.296Z,16.40
2023-03-03T12:28:38.417Z,15.37
2023-03-03T12:31:23.938Z,16.63
2023-03-03T12:34:12.271Z,15.97
2023-03-03T12:37:05.165Z,15.57
2023-03-03T12:39:48.926Z,16.73
2023-03-03T12:42:25.213Z,15.88
2023-03-03T12:45:21.319Z,16.30
2023-03-03T12:47:57.528Z,16.07
2023-03-03T12:51:06.793Z,17.93
2023-03-03T12:54:08.440Z,14.17
2023-03-03T12:56:54.926Z,16.13
2023-03-03T12:59:33.217Z,16.37
2023-03-03T13:02:25.716Z,16.67
2023-03-03T13:05:38.226Z,16.57
2023-03-03T13:08:31.838Z,16.60
2023-03-03T13:11:36.773Z,15.63
2023-03-03T13:14:41.304Z,17.80
2023-03-03T13:17:27.705Z,14.88
2023-03-03T13:20:03.209Z,16.27
2023-03-03T13:22:58.739Z,15.80
2023-03-03T13:25:50.594Z,17.17
2023-03-03T13:28:26.185Z,15.13
2023-03-03T13:31:11.850Z,16.93
2023-03-03T13:33:48.882Z,16.37
2023-03-03T13:36:18.139Z,17.07
2023-03-03T13:38:53.865Z,16.07
2023-03-03T13:41:38.924Z,16.13
2023-03-03T13:44:42.521Z,17.60
2023-03-03T13:47:50.674Z,18.60
2023-03-03T13:50:45.040Z,17.80
2023-03-03T13:53:57.396Z,19.05
2023-03-03T13:57:16.614Z,18.53
2023-03-03T14:00:06.648Z,16.50
2023-03-03T14:03:18.268Z,18.10
2023-03-03T14:05:50.327Z,17.13
2023-03-03T14:08:55.925Z,16.63
2023-03-03T14:11:31.392Z,16.40
2023-03-03T14:14:20.100Z,18.23
2023-03-03T14:17:14.415Z,16.27
2023-03-03T14:20:03.256Z,19.33
2023-03-03T14:23:03.644Z,17.73
2023-03-03T14:26:03.953Z,18.73
2023-03-03T14:28:49.821Z,17.07
2023-03-03T14:31:31.694Z,16.30
2023-03-03T14:34:38.901Z,19.53
2023-03-03T14:37:46.691Z,16.47
2023-03-03T14:40:22.555Z,17.13
2023-03-03T14:42:52.841Z,19.20
2023-03-03T14:45:36.231Z,18.60
2023-03-03T14:48:25.740Z,17.33
2023-03-03T14:51:29.197Z,18.53
2023-03-03T14:53:58.079Z,18.87
2023-03-03T14:56:33.287Z,17.30
2023-03-03T14:59:23.574Z,16.90
2023-03-03T15:02:24.692Z,17.77
2023-03-03T15:05:23.994Z,17.03
2023-03-03T15:08:14.713Z,18.00
2023-03-03T15:10:45.837Z,16.50
2023-03-03T15:13:22.121Z,17.80
2023-03-03T15:15:58.936Z,17.67
2023-03-03T15:18:28.968Z,16.70
2023-03-03T15:21:08.917Z,17.57
2023-03-03T15:24:21.863Z,18.60
2023-03-03T15:27:01.970Z,17.27
2023-03-03T15:29:44.656Z,17.43
2023-03-03T15:33:17.188Z,16.93
2023-03-03T15:35:56.548Z,17.07
2023-03-03T15:38:56.556Z,18.17
2023-03-03T15:41:35.150Z,17.63
2023-03-03T15:44:19.951Z,17.27
2023-03-03T15:47:40.618Z,17.23
2023-03-03T15:50:27.193Z,17.77
2023-03-03T15:53:29.758Z,16.40
2023-03-03T15:56:35.730Z,17.47
2023-03-03T15:59:32.744Z,18.83
2023-03-03T16:02:24.889Z,17.07
2023-03-03T16:05:32.726Z,18.03
2023-03-03T16:08:23.256Z,18.53
2023-03-03T16:11:04.732Z,18.37
2023-03-03T16:13:59.163Z,18.43
2023-03-03T16:16:52.779Z,16.92
2023-03-03T16:19:34.944Z,16.60
2023-03-03T16:22:41.290Z,17.70
2023-03-03T16:25:40.426Z,16.70
2023-03-03T16:28:16.363Z,17.87
2023-03-03T16:31:29.630Z,17.20
2023-03-03T16:34:21.813Z,17.30
2023-03-03T16:37:03.302Z,17.80
2023-03-03T16:40:22.122Z,17.00
2023-03-03T16:43:18.552Z,17.33
2023-03-03T16:45:46.802Z,18.90
2023-03-03T16:48:50.582Z,19.07
2023-03-03T16:51:53.025Z,18.27
2023-03-03T16:54:54.148Z,18.57
2023-03-03T16:57:53.430Z,16.53
2023-03-03T17:00:40.569Z,21.87
2023-03-03T17:03:34.699Z,23.40
2023-03-03T17:06:50.142Z,59.05
2023-03-03T17:09:41.678Z,19.87
2023-03-03T17:12:33.181Z,40.03
2023-03-03T17:15:16.605Z,21.53
2023-03-03T17:18:11.357Z,22.33
2023-03-03T17:20:49.185Z,22.23
2023-03-03T17:24:05.442Z,23.03
2023-03-03T17:27:03.515Z,21.10
2023-03-03T17:29:55.143Z,21.37
2023-03-03T17:33:06.537Z,22.80
2023-03-03T17:35:55.914Z,22.50
2023-03-03T17:38:48.197Z,23.43
2023-03-03T17:41:41.887Z,22.53
2023-03-03T17:44:27.408Z,20.80
2023-03-03T17:47:01.556Z,21.27
2023-03-03T17:50:05.054Z,22.50
2023-03-03T17:52:43.280Z,21.60
2023-03-03T17:55:37.127Z,19.27
2023-03-03T17:58:44.802Z,20.40
2023-03-03T18:01:46.470Z,19.73
2023-03-03T18:04:29.834Z,20.63
2023-03-03T18:07:49.492Z,22.42
2023-03-03T18:11:03.083Z,20.10
2023-03-03T18:13:59.768Z,19.80
2023-03-03T18:17:24.126Z,20.83
2023-03-03T18:20:48.346Z,22.73
2023-03-03T18:23:39.566Z,25.03
2023-03-03T18:26:41.949Z,22.97
2023-03-03T18:29:22.121Z,20.47
2023-03-03T18:31:52.636Z,21.20
2023-03-03T18:34:20.014Z,22.60
2023-03-03T18:37:03.764Z,20.60
2023-03-03T18:39:45.922Z,20.87
2023-03-03T18:42:16.361Z,21.20
2023-03-03T18:44:45.165Z,20.53
2023-03-03T18:47:14.927Z,20.30
2023-03-03T18:50:31.356Z,18.60
2023-03-03T18:53:10.850Z,20.77
2023-03-03T18:55:50.996Z,21.33
2023-03-03T18:58:18.361Z,22.67
2023-03-03T19:01:32.128Z,21.07
2023-03-03T19:04:22.753Z,22.77
2023-03-03T19:07:08.757Z,23.77
2023-03-03T19:10:03.523Z,21.30
2023-03-03T19:12:54.389Z,20.63
2023-03-03T19:15:53.896Z,21.77
2023-03-03T19:18:27.680Z,22.47
2023-03-03T19:21:33.644Z,31.40
2023-03-03T19:24:24.087Z,27.93
2023-03-03T19:27:09.581Z,27.93
2023-03-03T19:29:46.019Z,28.23
2023-03-03T19:32:57.869Z,25.70
2023-03-03T19:35:53.982Z,20.20
2023-03-03T19:38:45.606Z,19.97
2023-03-03T19:41:24.832Z,21.13
2023-03-03T19:44:51.197Z,18.60
2023-03-03T19:47:44.459Z,18.83
2023-03-03T19:50:26.414Z,18.27
2023-03-03T19:53:35.593Z,18.80
2023-03-03T19:56:24.512Z,17.70
2023-03-03T19:59:13.765Z,17.97
2023-03-03T20:02:15.141Z,16.87
2023-03-03T20:05:02.982Z,24.10
2023-03-03T20:07:57.696Z,21.23
2023-03-03T20:10:43.064Z,18.67
2023-03-03T20:13:37.618Z,18.17
2023-03-03T20:16:40.665Z,18.42
2023-03-03T20:19:56.036Z,19.03
2023-03-03T20:22:46.301Z,16.30
2023-03-03T20:25:29.540Z,18.10
2023-03-03T20:28:29.784Z,18.03
2023-03-03T20:31:17.343Z,17.70
2023-03-03T20:34:43.990Z,16.07
2023-03-03T20:38:02.553Z,16.60
2023-03-03T20:40:45.640Z,17.63
2023-03-03T20:43:46.089Z,17.23
2023-03-03T20:46:44.914Z,15.67
2023-03-03T20:49:28.807Z,15.87
2023-03-03T20:52:40.585Z,17.45
2023-03-03T20:55:25.384Z,17.43
2023-03-03T20:58:15.041Z,16.40
2023-03-03T21:01:14.664Z,17.27
2023-03-03T21:03:47.669Z,15.93
2023-03-03T21:06:19.020Z,16.77
2023-03-03T21:08:56.129Z,15.83
2023-03-03T21:11:32.783Z,15.33
2023-03-03T21:14:24.282Z,15.83
2023-03-03T21:16:56.520Z,15.47
2023-03-03T21:19:36.603Z,15.70
2023-03-03T21:22:04.633Z,15.93
2023-03-03T21:24:56.666Z,15.10
2023-03-03T21:27:34.296Z,14.90
2023-03-03T21:30:08.484Z,15.30
2023-03-03T21:32:48.036Z,14.63
2023-03-03T21:35:23.261Z,15.50
2023-03-03T21:37:55.208Z,14.93
2023-03-03T21:40:31.739Z,15.00
2023-03-03T21:43:00.135Z,15.73
2023-03-03T21:45:29.962Z,16.17
2023-03-03T21:47:59.270Z,15.90
2023-03-03T21:50:32.030Z,15.33
2023-03-03T21:52:59.505Z,16.30
2023-03-03T21:55:27.009Z,17.23
2023-03-03T21:57:54.499Z,15.33
2023-03-03T22:00:22.388Z,16.20
2023-03-03T22:02:49.910Z,16.97
2023-03-03T22:05:17.378Z,16.50
2023-03-03T22:07:44.895Z,17.23
2023-03-03T22:10:12.620Z,16.33
2023-03-03T22:12:40.113Z,16.13
2023-03-03T22:15:08.028Z,16.93
2023-03-03T22:17:35.512Z,15.77
2023-03-03T22:20:03.038Z,16.53
2023-03-03T22:22:30.505Z,15.57
2023-03-03T22:24:58.017Z,15.73
2023-03-03T22:27:25.520Z,17.93
2023-03-03T22:29:53.026Z,16.63
2023-03-03T22:32:20.556Z,16.63
2023-03-03T22:34:48.253Z,16.33
2023-03-03T22:37:15.772Z,16.20
2023-03-03T22:39:43.253Z,16.00
2023-03-03T22:42:11.097Z,15.73
2023-03-03T22:44:38.726Z,15.83
2023-03-03T22:47:06.256Z,14.50
2023-03-03T22:49:33.800Z,16.17
2023-03-03T22:52:02.508Z,17.47
2023-03-03T22:54:30.035Z,17.23
2023-03-03T22:56:57.596Z,15.33
2023-03-03T22:59:25.100Z,16.43
2023-03-03T23:01:52.578Z,17.23
2023-03-03T23:04:20.113Z,16.73
2023-03-03T23:06:47.729Z,16.73
2023-03-03T23:09:15.253Z,16.43
2023-03-03T23:11:42.739Z,16.80
2023-03-03T23:14:10.268Z,16.70
2023-03-03T23:16:37.805Z,15.77
2023-03-03T23:19:05.342Z,16.77
2023-03-03T23:21:32.963Z,15.37
2023-03-03T23:24:01.143Z,16.20
2023-03-03T23:26:28.897Z,16.97
2023-03-03T23:28:56.629Z,17.23
2023-03-03T23:31:26.151Z,16.17
2023-03-03T23:33:53.705Z,16.63
2023-03-03T23:36:21.236Z,16.30
2023-03-03T23:38:48.812Z,15.73
2023-03-03T23:41:16.374Z,17.67
2023-03-03T23:43:43.899Z,16.20
2023-03-03T23:46:11.570Z,15.67
2023-03-03T23:48:39.109Z,15.53
2023-03-03T23:51:06.612Z,16.67
2023-03-03T23:53:34.244Z,15.43
2023-03-03T23:56:02.069Z,15.77
2023-03-03T23:58:29.621Z,14.90
